createdAt,value
2018-12-18T00:00:19.915Z,1007.51
2018-12-18T00:01:26.588Z,1007.54
2018-12-18T00:02:32.105Z,1007.54
2018-12-18T00:03:39.400Z,1007.55
2018-12-18T00:04:44.775Z,1007.55
2018-12-18T00:05:50.846Z,1007.54
2018-12-18T00:06:56.946Z,1007.55
2018-12-18T00:08:03.448Z,1007.51
2018-12-18T00:09:08.641Z,1007.49
2018-12-18T00:10:15.206Z,1007.52
2018-12-18T00:11:21.307Z,1007.50
2018-12-18T00:12:27.405Z,1007.52
2018-12-18T00:13:33.486Z,1007.52
2018-12-18T00:14:39.565Z,1007.53
2018-12-18T00:15:45.661Z,1007.52
2018-12-18T00:16:51.750Z,1007.57
2018-12-18T00:17:57.830Z,1007.57
2018-12-18T00:19:03.435Z,1007.53
2018-12-18T00:20:10.007Z,1007.52
2018-12-18T00:21:16.566Z,1007.49
2018-12-18T00:22:21.701Z,1007.44
2018-12-18T00:23:27.982Z,1007.42
2018-12-18T00:24:34.368Z,1007.43
2018-12-18T00:25:39.964Z,1007.38
2018-12-18T00:26:46.593Z,1007.40
2018-12-18T00:27:52.643Z,1007.38
2018-12-18T00:28:58.220Z,1007.39
2018-12-18T00:30:04.318Z,1007.37
2018-12-18T00:31:10.889Z,1007.37
2018-12-18T00:32:16.591Z,1007.37
2018-12-18T00:33:23.055Z,1007.37
2018-12-18T00:34:29.141Z,1007.37
2018-12-18T00:35:34.739Z,1007.35
2018-12-18T00:36:41.320Z,1007.37
2018-12-18T00:37:47.384Z,1007.34
2018-12-18T00:38:52.979Z,1007.38
2018-12-18T00:39:59.547Z,1007.34
2018-12-18T00:41:05.629Z,1007.34
2018-12-18T00:42:11.719Z,1007.34
2018-12-18T00:43:17.304Z,1007.33
2018-12-18T00:44:23.365Z,1007.32
2018-12-18T00:45:29.458Z,1007.35
2018-12-18T00:46:36.588Z,1007.35
2018-12-18T00:47:42.109Z,1007.32
2018-12-18T00:48:48.197Z,1007.31
2018-12-18T00:49:54.774Z,1007.28
2018-12-18T00:50:59.879Z,1007.28
2018-12-18T00:52:05.989Z,1007.28
2018-12-18T00:53:12.586Z,1007.28
2018-12-18T00:54:18.102Z,1007.33
2018-12-18T00:55:24.667Z,1007.32
2018-12-18T00:56:30.762Z,1007.31
2018-12-18T00:57:36.831Z,1007.26
2018-12-18T00:58:42.419Z,1007.24
2018-12-18T00:59:48.990Z,1007.24
2018-12-18T01:00:55.070Z,1007.24
2018-12-18T01:02:01.153Z,1007.26
2018-12-18T01:03:07.208Z,1007.25
2018-12-18T01:04:13.314Z,1007.27
2018-12-18T01:05:19.357Z,1007.32
2018-12-18T01:06:24.947Z,1007.31
2018-12-18T01:07:31.511Z,1007.29
2018-12-18T01:08:37.576Z,1007.34
2018-12-18T01:09:43.159Z,1007.35
2018-12-18T01:10:49.227Z,1007.31
2018-12-18T01:11:55.789Z,1007.34
2018-12-18T01:13:01.856Z,1007.38
2018-12-18T01:14:07.436Z,1007.39
2018-12-18T01:15:13.502Z,1007.39
2018-12-18T01:16:19.605Z,1007.37
2018-12-18T01:17:25.638Z,1007.40
2018-12-18T01:18:32.199Z,1007.39
2018-12-18T01:19:37.757Z,1007.42
2018-12-18T01:20:44.304Z,1007.36
2018-12-18T01:21:50.373Z,1007.36
2018-12-18T01:22:55.958Z,1007.40
2018-12-18T01:24:02.588Z,1007.38
2018-12-18T01:25:08.082Z,1007.38
2018-12-18T01:26:14.643Z,1007.36
2018-12-18T01:27:20.695Z,1007.39
2018-12-18T01:28:26.749Z,1007.38
2018-12-18T01:29:32.823Z,1007.38
2018-12-18T01:30:38.871Z,1007.36
2018-12-18T01:31:45.455Z,1007.32
2018-12-18T01:32:50.531Z,1007.36
2018-12-18T01:33:59.381Z,1007.36
2018-12-18T01:35:03.137Z,1007.41
2018-12-18T01:36:09.181Z,1007.43
2018-12-18T01:37:15.247Z,1007.45
2018-12-18T01:38:20.805Z,1007.40
2018-12-18T01:39:27.366Z,1007.44
2018-12-18T01:40:32.931Z,1007.44
2018-12-18T01:41:39.480Z,1007.45
2018-12-18T01:42:45.538Z,1007.40
2018-12-18T01:43:51.098Z,1007.42
2018-12-18T01:44:57.163Z,1007.35
2018-12-18T01:46:03.723Z,1007.36
2018-12-18T01:47:09.267Z,1007.38
2018-12-18T01:48:15.820Z,1007.45
2018-12-18T01:49:21.380Z,1007.41
2018-12-18T01:50:27.427Z,1007.38
2018-12-18T01:51:33.485Z,1007.37
2018-12-18T01:52:40.036Z,1007.37
2018-12-18T01:53:46.119Z,1007.37
2018-12-18T01:54:52.183Z,1007.34
2018-12-18T01:55:57.750Z,1007.35
2018-12-18T01:57:04.279Z,1007.36
2018-12-18T01:58:09.848Z,1007.37
2018-12-18T01:59:15.899Z,1007.39
2018-12-18T02:00:22.584Z,1007.36
2018-12-18T02:01:28.033Z,1007.34
2018-12-18T02:02:34.587Z,1007.31
2018-12-18T02:03:40.665Z,1007.34
2018-12-18T02:04:46.711Z,1007.37
2018-12-18T02:05:52.281Z,1007.37
2018-12-18T02:06:58.930Z,1007.40
2018-12-18T02:08:04.901Z,1007.41
2018-12-18T02:09:10.961Z,1007.43
2018-12-18T02:10:16.536Z,1007.40
2018-12-18T02:11:22.604Z,1007.43
2018-12-18T02:12:29.156Z,1007.46
2018-12-18T02:13:35.220Z,1007.43
2018-12-18T02:14:41.288Z,1007.47
2018-12-18T02:15:46.851Z,1007.49
2018-12-18T02:16:53.411Z,1007.47
2018-12-18T02:17:58.992Z,1007.44
2018-12-18T02:19:05.529Z,1007.42
2018-12-18T02:20:13.017Z,1007.51
2018-12-18T02:21:17.667Z,1007.47
2018-12-18T02:22:23.245Z,1007.49
2018-12-18T02:23:29.792Z,1007.53
2018-12-18T02:24:35.357Z,1007.44
2018-12-18T02:25:41.933Z,1007.40
2018-12-18T02:26:47.994Z,1007.44
2018-12-18T02:27:54.122Z,1007.43
2018-12-18T02:29:00.113Z,1007.44
2018-12-18T02:30:05.694Z,1007.44
2018-12-18T02:31:11.745Z,1007.45
2018-12-18T02:32:18.306Z,1007.47
2018-12-18T02:33:23.877Z,1007.51
2018-12-18T02:34:30.418Z,1007.54
2018-12-18T02:35:36.494Z,1007.51
2018-12-18T02:36:42.050Z,1007.50
2018-12-18T02:37:48.613Z,1007.48
2018-12-18T02:38:54.668Z,1007.46
2018-12-18T02:40:00.713Z,1007.52
2018-12-18T02:41:06.802Z,1007.55
2018-12-18T02:42:12.823Z,1007.54
2018-12-18T02:43:18.946Z,1007.51
2018-12-18T02:44:24.947Z,1007.53
2018-12-18T02:45:30.517Z,1007.52
2018-12-18T02:46:36.570Z,1007.44
2018-12-18T02:47:42.621Z,1007.53
2018-12-18T02:48:48.670Z,1007.48
2018-12-18T02:49:55.226Z,1007.51
2018-12-18T02:51:00.783Z,1007.49
2018-12-18T02:52:07.335Z,1007.52
2018-12-18T02:53:12.901Z,1007.48
2018-12-18T02:54:19.450Z,1007.46
2018-12-18T02:55:25.007Z,1007.49
2018-12-18T02:56:31.561Z,1007.52
2018-12-18T02:57:37.119Z,1007.49
2018-12-18T02:58:43.660Z,1007.54
2018-12-18T02:59:49.717Z,1007.48
2018-12-18T03:00:55.301Z,1007.51
2018-12-18T03:02:01.340Z,1007.48
2018-12-18T03:03:07.401Z,1007.52
2018-12-18T03:04:20.968Z,1007.51
2018-12-18T03:05:19.507Z,1007.54
2018-12-18T03:06:26.058Z,1007.54
2018-12-18T03:07:33.120Z,1007.55
2018-12-18T03:08:38.182Z,1007.56
2018-12-18T03:09:44.230Z,1007.47
2018-12-18T03:10:50.298Z,1007.46
2018-12-18T03:11:55.840Z,1007.43
2018-12-18T03:13:02.388Z,1007.48
2018-12-18T03:14:07.949Z,1007.49
2018-12-18T03:15:13.999Z,1007.45
2018-12-18T03:16:20.583Z,1007.43
2018-12-18T03:17:26.121Z,1007.45
2018-12-18T03:18:32.165Z,1007.45
2018-12-18T03:19:38.717Z,1007.43
2018-12-18T03:20:44.765Z,1007.42
2018-12-18T03:21:50.805Z,1007.44
2018-12-18T03:22:56.659Z,1007.43
2018-12-18T03:24:02.922Z,1007.44
2018-12-18T03:25:08.961Z,1007.39
2018-12-18T03:26:14.532Z,1007.40
2018-12-18T03:27:20.575Z,1007.42
2018-12-18T03:28:27.129Z,1007.46
2018-12-18T03:29:32.678Z,1007.43
2018-12-18T03:30:38.753Z,1007.45
2018-12-18T03:31:44.778Z,1007.45
2018-12-18T03:32:51.327Z,1007.47
2018-12-18T03:33:57.321Z,1007.46
2018-12-18T03:35:03.401Z,1007.51
2018-12-18T03:36:08.965Z,1007.49
2018-12-18T03:37:15.502Z,1007.50
2018-12-18T03:38:21.540Z,1007.43
2018-12-18T03:39:27.587Z,1007.47
2018-12-18T03:40:33.128Z,1007.43
2018-12-18T03:41:39.168Z,1007.49
2018-12-18T03:42:45.206Z,1007.42
2018-12-18T03:43:51.270Z,1007.43
2018-12-18T03:44:57.300Z,1007.42
2018-12-18T03:46:03.828Z,1007.46
2018-12-18T03:47:09.368Z,1007.46
2018-12-18T03:48:15.417Z,1007.45
2018-12-18T03:49:21.437Z,1007.38
2018-12-18T03:50:27.971Z,1007.37
2018-12-18T03:51:33.994Z,1007.38
2018-12-18T03:52:40.041Z,1007.39
2018-12-18T03:53:45.566Z,1007.41
2018-12-18T03:54:52.104Z,1007.41
2018-12-18T03:55:58.123Z,1007.47
2018-12-18T03:57:03.703Z,1007.46
2018-12-18T03:58:10.196Z,1007.39
2018-12-18T03:59:15.720Z,1007.39
2018-12-18T04:00:22.248Z,1007.37
2018-12-18T04:01:27.797Z,1007.43
2018-12-18T04:02:34.291Z,1007.41
2018-12-18T04:03:40.353Z,1007.40
2018-12-18T04:04:45.854Z,1007.38
2018-12-18T04:05:52.377Z,1007.40
2018-12-18T04:06:57.904Z,1007.40
2018-12-18T04:08:03.938Z,1007.39
2018-12-18T04:09:09.933Z,1007.49
2018-12-18T04:10:15.954Z,1007.44
2018-12-18T04:11:22.573Z,1007.41
2018-12-18T04:12:27.982Z,1007.42
2018-12-18T04:13:34.568Z,1007.42
2018-12-18T04:14:40.020Z,1007.44
2018-12-18T04:15:46.577Z,1007.45
2018-12-18T04:16:52.037Z,1007.43
2018-12-18T04:17:58.056Z,1007.49
2018-12-18T04:19:04.064Z,1007.48
2018-12-18T04:20:10.080Z,1007.51
2018-12-18T04:21:16.594Z,1007.47
2018-12-18T04:22:22.109Z,1007.50
2018-12-18T04:23:28.597Z,1007.47
2018-12-18T04:24:34.115Z,1007.50
2018-12-18T04:25:40.137Z,1007.49
2018-12-18T04:26:46.647Z,1007.46
2018-12-18T04:27:52.146Z,1007.42
2018-12-18T04:28:58.661Z,1007.43
2018-12-18T04:30:04.178Z,1007.42
2018-12-18T04:31:10.681Z,1007.45
2018-12-18T04:32:16.681Z,1007.45
2018-12-18T04:33:23.689Z,1007.44
2018-12-18T04:34:28.220Z,1007.45
2018-12-18T04:35:34.213Z,1007.46
2018-12-18T04:36:40.724Z,1007.45
2018-12-18T04:37:46.727Z,1007.46
2018-12-18T04:38:52.246Z,1007.48
2018-12-18T04:39:58.270Z,1007.46
2018-12-18T04:41:04.264Z,1007.48
2018-12-18T04:42:10.780Z,1007.48
2018-12-18T04:43:16.304Z,1007.46
2018-12-18T04:44:22.298Z,1007.45
2018-12-18T04:45:28.313Z,1007.49
2018-12-18T04:46:34.815Z,1007.43
2018-12-18T04:47:40.831Z,1007.44
2018-12-18T04:48:46.835Z,1007.43
2018-12-18T04:49:52.363Z,1007.41
2018-12-18T04:50:59.857Z,1007.45
2018-12-18T04:52:04.873Z,1007.44
2018-12-18T04:53:10.892Z,1007.47
2018-12-18T04:54:16.891Z,1007.48
2018-12-18T04:55:22.917Z,1007.52
2018-12-18T04:56:28.424Z,1007.49
2018-12-18T04:57:34.921Z,1007.47
2018-12-18T04:58:40.938Z,1007.44
2018-12-18T04:59:46.584Z,1007.45
2018-12-18T05:00:52.959Z,1007.49
2018-12-18T05:01:58.587Z,1007.49
2018-12-18T05:03:05.007Z,1007.52
2018-12-18T05:04:10.993Z,1007.48
2018-12-18T05:05:16.514Z,1007.50
2018-12-18T05:06:23.004Z,1007.50
2018-12-18T05:07:29.020Z,1007.55
2018-12-18T05:08:34.535Z,1007.53
2018-12-18T05:09:40.539Z,1007.50
2018-12-18T05:10:47.042Z,1007.51
2018-12-18T05:11:52.550Z,1007.47
2018-12-18T05:12:59.064Z,1007.46
2018-12-18T05:14:05.062Z,1007.46
2018-12-18T05:15:11.055Z,1007.43
2018-12-18T05:16:17.087Z,1007.45
2018-12-18T05:17:22.591Z,1007.41
2018-12-18T05:18:29.093Z,1007.44
2018-12-18T05:19:34.593Z,1007.41
2018-12-18T05:20:40.602Z,1007.47
2018-12-18T05:21:46.626Z,1007.45
2018-12-18T05:22:52.626Z,1007.46
2018-12-18T05:23:59.130Z,1007.45
2018-12-18T05:25:05.137Z,1007.50
2018-12-18T05:26:11.153Z,1007.48
2018-12-18T05:27:17.153Z,1007.48
2018-12-18T05:28:22.670Z,1007.56
2018-12-18T05:29:28.680Z,1007.55
2018-12-18T05:30:35.179Z,1007.53
2018-12-18T05:31:40.694Z,1007.58
2018-12-18T05:32:46.703Z,1007.55
2018-12-18T05:33:53.204Z,1007.57
2018-12-18T05:34:58.712Z,1007.57
2018-12-18T05:36:04.729Z,1007.61
2018-12-18T05:37:10.769Z,1007.61
2018-12-18T05:38:17.244Z,1007.66
2018-12-18T05:39:23.262Z,1007.71
2018-12-18T05:40:28.757Z,1007.64
2018-12-18T05:41:35.267Z,1007.65
2018-12-18T05:42:41.289Z,1007.65
2018-12-18T05:43:47.750Z,1007.62
2018-12-18T05:44:53.318Z,1007.65
2018-12-18T05:45:58.815Z,1007.70
2018-12-18T05:47:04.844Z,1007.67
2018-12-18T05:48:11.341Z,1007.67
2018-12-18T05:49:17.441Z,1007.64
2018-12-18T05:50:22.877Z,1007.63
2018-12-18T05:51:29.401Z,1007.69
2018-12-18T05:52:35.393Z,1007.71
2018-12-18T05:53:40.919Z,1007.74
2018-12-18T05:54:47.427Z,1007.79
2018-12-18T05:55:53.430Z,1007.81
2018-12-18T05:56:59.454Z,1007.79
2018-12-18T05:58:05.455Z,1007.83
2018-12-18T05:59:11.475Z,1007.78
2018-12-18T06:00:17.488Z,1007.75
2018-12-18T06:01:23.002Z,1007.69
2018-12-18T06:02:29.076Z,1007.72
2018-12-18T06:03:35.528Z,1007.73
2018-12-18T06:04:41.549Z,1007.74
2018-12-18T06:05:47.069Z,1007.72
2018-12-18T06:06:53.577Z,1007.72
2018-12-18T06:07:59.579Z,1007.68
2018-12-18T06:09:05.597Z,1007.67
2018-12-18T06:10:11.123Z,1007.66
2018-12-18T06:11:17.139Z,1007.64
2018-12-18T06:12:23.641Z,1007.67
2018-12-18T06:13:29.170Z,1007.63
2018-12-18T06:14:35.173Z,1007.62
2018-12-18T06:15:41.691Z,1007.57
2018-12-18T06:16:47.202Z,1007.52
2018-12-18T06:17:53.704Z,1007.50
2018-12-18T06:19:00.197Z,1007.53
2018-12-18T06:20:05.746Z,1007.50
2018-12-18T06:21:11.304Z,1007.50
2018-12-18T06:22:17.787Z,1007.49
2018-12-18T06:23:23.805Z,1007.49
2018-12-18T06:24:29.321Z,1007.48
2018-12-18T06:25:35.823Z,1007.50
2018-12-18T06:26:41.354Z,1007.51
2018-12-18T06:27:47.369Z,1007.51
2018-12-18T06:28:53.382Z,1007.45
2018-12-18T06:29:59.418Z,1007.47
2018-12-18T06:31:05.917Z,1007.47
2018-12-18T06:32:11.932Z,1007.50
2018-12-18T06:33:17.968Z,1007.51
2018-12-18T06:34:23.965Z,1007.51
2018-12-18T06:35:30.023Z,1007.57
2018-12-18T06:36:35.999Z,1007.54
2018-12-18T06:37:42.019Z,1007.55
2018-12-18T06:38:48.037Z,1007.57
2018-12-18T06:39:54.049Z,1007.59
2018-12-18T06:41:00.072Z,1007.54
2018-12-18T06:42:06.100Z,1007.53
2018-12-18T06:43:12.105Z,1007.52
2018-12-18T06:44:17.639Z,1007.52
2018-12-18T06:45:24.142Z,1007.53
2018-12-18T06:46:29.674Z,1007.50
2018-12-18T06:47:35.683Z,1007.53
2018-12-18T06:48:41.696Z,1007.54
2018-12-18T06:49:48.213Z,1007.51
2018-12-18T06:50:53.729Z,1007.48
2018-12-18T06:51:59.757Z,1007.52
2018-12-18T06:53:05.784Z,1007.54
2018-12-18T06:54:12.284Z,1007.54
2018-12-18T06:55:17.823Z,1007.52
2018-12-18T06:56:23.840Z,1007.52
2018-12-18T06:57:29.871Z,1007.53
2018-12-18T06:58:36.374Z,1007.62
2018-12-18T06:59:41.909Z,1007.57
2018-12-18T07:00:48.425Z,1007.64
2018-12-18T07:01:54.433Z,1007.64
2018-12-18T07:03:00.577Z,1007.63
2018-12-18T07:04:06.588Z,1007.63
2018-12-18T07:05:16.692Z,1007.62
2018-12-18T07:06:18.043Z,1007.61
2018-12-18T07:07:24.584Z,1007.60
2018-12-18T07:08:30.087Z,1007.59
2018-12-18T07:09:36.610Z,1007.60
2018-12-18T07:10:42.145Z,1007.64
2018-12-18T07:11:48.675Z,1007.61
2018-12-18T07:12:54.689Z,1007.61
2018-12-18T07:14:00.721Z,1007.59
2018-12-18T07:15:06.254Z,1007.56
2018-12-18T07:16:12.283Z,1007.53
2018-12-18T07:17:18.794Z,1007.55
2018-12-18T07:18:24.332Z,1007.51
2018-12-18T07:19:30.367Z,1007.53
2018-12-18T07:20:36.893Z,1007.52
2018-12-18T07:21:42.911Z,1007.48
2018-12-18T07:22:48.953Z,1007.51
2018-12-18T07:23:55.495Z,1007.51
2018-12-18T07:25:01.005Z,1007.50
2018-12-18T07:26:06.547Z,1007.51
2018-12-18T07:27:13.069Z,1007.51
2018-12-18T07:28:18.614Z,1007.48
2018-12-18T07:29:25.129Z,1007.51
2018-12-18T07:30:30.671Z,1007.50
2018-12-18T07:31:36.702Z,1007.53
2018-12-18T07:32:43.233Z,1007.53
2018-12-18T07:33:49.270Z,1007.55
2018-12-18T07:34:54.807Z,1007.56
2018-12-18T07:36:01.378Z,1007.56
2018-12-18T07:37:07.422Z,1007.60
2018-12-18T07:38:13.408Z,1007.58
2018-12-18T07:39:18.956Z,1007.60
2018-12-18T07:40:25.521Z,1007.53
2018-12-18T07:41:31.011Z,1007.51
2018-12-18T07:42:37.041Z,1007.52
2018-12-18T07:43:43.580Z,1007.50
2018-12-18T07:44:49.120Z,1007.55
2018-12-18T07:45:55.645Z,1007.50
2018-12-18T07:47:01.677Z,1007.54
2018-12-18T07:48:07.724Z,1007.47
2018-12-18T07:49:13.767Z,1007.55
2018-12-18T07:50:19.323Z,1007.52
2018-12-18T07:51:25.346Z,1007.55
2018-12-18T07:52:31.385Z,1007.56
2018-12-18T07:53:37.917Z,1007.56
2018-12-18T07:54:43.956Z,1007.61
2018-12-18T07:55:50.002Z,1007.61
2018-12-18T07:56:55.559Z,1007.60
2018-12-18T07:58:02.089Z,1007.62
2018-12-18T07:59:08.161Z,1007.66
2018-12-18T08:00:13.697Z,1007.65
2018-12-18T08:01:20.227Z,1007.65
2018-12-18T08:02:26.272Z,1007.63
2018-12-18T08:03:32.321Z,1007.63
2018-12-18T08:04:39.367Z,1007.61
2018-12-18T08:05:43.924Z,1007.62
2018-12-18T08:06:50.578Z,1007.58
2018-12-18T08:07:56.580Z,1007.62
2018-12-18T08:09:02.067Z,1007.59
2018-12-18T08:10:08.615Z,1007.65
2018-12-18T08:11:14.658Z,1007.63
2018-12-18T08:12:20.219Z,1007.62
2018-12-18T08:13:26.767Z,1007.65
2018-12-18T08:14:32.837Z,1007.68
2018-12-18T08:15:38.890Z,1007.67
2018-12-18T08:16:44.935Z,1007.70
2018-12-18T08:17:50.508Z,1007.77
2018-12-18T08:18:56.563Z,1007.76
2018-12-18T08:20:03.111Z,1007.82
2018-12-18T08:21:09.179Z,1007.82
2018-12-18T08:22:15.225Z,1007.84
2018-12-18T08:23:20.785Z,1007.86
2018-12-18T08:24:27.349Z,1007.89
2018-12-18T08:25:32.898Z,1007.87
2018-12-18T08:26:39.482Z,1007.82
2018-12-18T08:27:45.585Z,1007.85
2018-12-18T08:28:51.579Z,1007.85
2018-12-18T08:29:57.157Z,1007.81
2018-12-18T08:31:03.706Z,1007.84
2018-12-18T08:32:10.787Z,1007.82
2018-12-18T08:33:15.340Z,1007.79
2018-12-18T08:34:21.903Z,1007.80
2018-12-18T08:35:27.982Z,1007.78
2018-12-18T08:36:33.543Z,1007.72
2018-12-18T08:37:40.119Z,1007.67
2018-12-18T08:38:45.682Z,1007.62
2018-12-18T08:39:52.268Z,1007.53
2018-12-18T08:40:58.340Z,1007.52
2018-12-18T08:42:04.414Z,1007.48
2018-12-18T08:43:10.507Z,1007.48
2018-12-18T08:44:16.549Z,1007.49
2018-12-18T08:45:22.647Z,1007.50
2018-12-18T08:46:28.221Z,1007.51
2018-12-18T08:47:34.781Z,1007.49
2018-12-18T08:48:40.857Z,1007.49
2018-12-18T08:49:46.945Z,1007.39
2018-12-18T08:50:52.534Z,1007.34
2018-12-18T08:51:59.092Z,1007.28
2018-12-18T08:53:05.190Z,1007.22
2018-12-18T08:54:11.282Z,1007.18
2018-12-18T08:55:16.861Z,1007.11
2018-12-18T08:56:23.438Z,1007.13
2018-12-18T08:57:29.030Z,1007.09
2018-12-18T08:58:35.108Z,1007.07
2018-12-18T08:59:41.686Z,1007.09
2018-12-18T09:00:47.768Z,1007.09
2018-12-18T09:01:53.845Z,1007.12
2018-12-18T09:02:59.937Z,1007.14
2018-12-18T09:04:05.520Z,1007.15
2018-12-18T09:05:12.112Z,1007.12
2018-12-18T09:06:17.712Z,1007.10
2018-12-18T09:07:23.791Z,1007.06
2018-12-18T09:08:30.385Z,1007.05
2018-12-18T09:09:36.475Z,1007.01
2018-12-18T09:10:42.080Z,1006.97
2018-12-18T09:11:48.653Z,1006.97
2018-12-18T09:12:54.265Z,1006.91
2018-12-18T09:14:00.343Z,1006.93
2018-12-18T09:15:06.450Z,1006.96
2018-12-18T09:16:14.033Z,1006.96
2018-12-18T09:17:19.138Z,1006.99
2018-12-18T09:18:24.738Z,1006.92
2018-12-18T09:19:31.325Z,1006.87
2018-12-18T09:20:36.937Z,1006.83
2018-12-18T09:21:43.525Z,1006.77
2018-12-18T09:22:49.141Z,1006.73
2018-12-18T09:23:55.249Z,1006.77
2018-12-18T09:25:01.347Z,1006.78
2018-12-18T09:26:07.454Z,1006.82
2018-12-18T09:27:14.048Z,1006.83
2018-12-18T09:28:20.150Z,1006.79
2018-12-18T09:29:26.247Z,1006.80
2018-12-18T09:30:32.343Z,1006.78
2018-12-18T09:31:37.961Z,1006.72
2018-12-18T09:32:44.560Z,1006.65
2018-12-18T09:33:50.663Z,1006.63
2018-12-18T09:34:56.778Z,1006.60
2018-12-18T09:36:02.875Z,1006.59
2018-12-18T09:37:09.985Z,1006.67
2018-12-18T09:38:14.607Z,1006.63
2018-12-18T09:39:20.710Z,1006.64
2018-12-18T09:40:27.311Z,1006.67
2018-12-18T09:41:32.933Z,1006.63
2018-12-18T09:42:40.527Z,1006.61
2018-12-18T09:43:45.151Z,1006.58
2018-12-18T09:44:51.286Z,1006.53
2018-12-18T09:45:57.369Z,1006.54
2018-12-18T09:47:04.003Z,1006.55
2018-12-18T09:48:10.089Z,1006.53
2018-12-18T09:49:16.213Z,1006.50
2018-12-18T09:50:22.328Z,1006.45
2018-12-18T09:51:27.949Z,1006.45
2018-12-18T09:52:34.567Z,1006.43
2018-12-18T09:53:40.172Z,1006.38
2018-12-18T09:54:46.795Z,1006.41
2018-12-18T09:55:52.909Z,1006.45
2018-12-18T09:56:59.029Z,1006.41
2018-12-18T09:58:05.153Z,1006.37
2018-12-18T09:59:11.272Z,1006.37
2018-12-18T10:00:16.894Z,1006.28
2018-12-18T10:01:23.588Z,1006.29
2018-12-18T10:02:29.645Z,1006.30
2018-12-18T10:03:35.758Z,1006.30
2018-12-18T10:04:41.872Z,1006.27
2018-12-18T10:05:47.502Z,1006.25
2018-12-18T10:06:54.418Z,1006.24
2018-12-18T10:08:00.244Z,1006.28
2018-12-18T10:09:09.576Z,1006.30
2018-12-18T10:10:12.002Z,1006.30
2018-12-18T10:11:18.641Z,1006.34
2018-12-18T10:12:24.248Z,1006.36
2018-12-18T10:13:30.374Z,1006.36
2018-12-18T10:14:36.487Z,1006.42
2018-12-18T10:15:43.105Z,1006.36
2018-12-18T10:16:49.241Z,1006.35
2018-12-18T10:17:54.859Z,1006.30
2018-12-18T10:19:01.607Z,1006.23
2018-12-18T10:20:07.628Z,1006.16
2018-12-18T10:21:13.729Z,1006.17
2018-12-18T10:22:19.347Z,1006.05
2018-12-18T10:23:25.593Z,1005.99
2018-12-18T10:24:31.618Z,1005.96
2018-12-18T10:25:38.259Z,1005.90
2018-12-18T10:26:44.356Z,1005.89
2018-12-18T10:27:50.511Z,1005.85
2018-12-18T10:28:56.633Z,1005.83
2018-12-18T10:30:02.750Z,1005.81
2018-12-18T10:31:08.405Z,1005.86
2018-12-18T10:32:15.031Z,1005.86
2018-12-18T10:33:20.669Z,1005.77
2018-12-18T10:34:27.306Z,1005.73
2018-12-18T10:35:36.681Z,1005.64
2018-12-18T10:36:39.086Z,1005.61
2018-12-18T10:37:45.707Z,1005.55
2018-12-18T10:38:51.873Z,1005.49
2018-12-18T10:39:57.510Z,1005.49
2018-12-18T10:41:04.156Z,1005.42
2018-12-18T10:42:10.301Z,1005.41
2018-12-18T10:43:15.957Z,1005.33
2018-12-18T10:44:22.597Z,1005.30
2018-12-18T10:45:28.744Z,1005.25
2018-12-18T10:46:34.894Z,1005.28
2018-12-18T10:47:41.066Z,1005.23
2018-12-18T10:48:47.215Z,1005.19
2018-12-18T10:49:53.365Z,1005.18
2018-12-18T10:50:59.023Z,1005.16
2018-12-18T10:52:05.692Z,1005.14
2018-12-18T10:53:11.332Z,1005.09
2018-12-18T10:54:17.589Z,1005.10
2018-12-18T10:55:23.628Z,1005.02
2018-12-18T10:56:30.287Z,1005.07
2018-12-18T10:57:36.462Z,1005.00
2018-12-18T10:58:42.620Z,1005.04
2018-12-18T10:59:48.765Z,1005.03
2018-12-18T11:00:54.935Z,1005.03
2018-12-18T11:02:01.085Z,1004.95
2018-12-18T11:03:07.264Z,1004.97
2018-12-18T11:04:12.908Z,1004.90
2018-12-18T11:05:19.584Z,1004.89
2018-12-18T11:06:25.721Z,1004.83
2018-12-18T11:07:31.873Z,1004.76
2018-12-18T11:08:37.554Z,1004.76
2018-12-18T11:09:44.193Z,1004.79
2018-12-18T11:10:49.847Z,1004.72
2018-12-18T11:11:56.496Z,1004.72
2018-12-18T11:13:02.135Z,1004.71
2018-12-18T11:14:08.292Z,1004.69
2018-12-18T11:15:14.933Z,1004.66
2018-12-18T11:16:21.100Z,1004.67
2018-12-18T11:17:27.254Z,1004.67
2018-12-18T11:18:33.421Z,1004.64
2018-12-18T11:19:39.578Z,1004.64
2018-12-18T11:20:45.223Z,1004.66
2018-12-18T11:21:51.876Z,1004.64
2018-12-18T11:22:58.020Z,1004.61
2018-12-18T11:24:03.697Z,1004.61
2018-12-18T11:25:09.842Z,1004.54
2018-12-18T11:26:15.990Z,1004.53
2018-12-18T11:27:22.636Z,1004.57
2018-12-18T11:28:28.291Z,1004.59
2018-12-18T11:29:34.922Z,1004.58
2018-12-18T11:30:41.070Z,1004.50
2018-12-18T11:31:47.231Z,1004.49
2018-12-18T11:32:52.897Z,1004.48
2018-12-18T11:33:59.026Z,1004.48
2018-12-18T11:35:05.176Z,1004.45
2018-12-18T11:36:16.436Z,1004.44
2018-12-18T11:37:17.468Z,1004.44
2018-12-18T11:38:24.105Z,1004.41
2018-12-18T11:39:30.365Z,1004.37
2018-12-18T11:40:36.400Z,1004.35
2018-12-18T11:41:42.046Z,1004.25
2018-12-18T11:42:48.689Z,1004.20
2018-12-18T11:43:54.845Z,1004.13
2018-12-18T11:45:01.979Z,1004.08
2018-12-18T11:46:07.135Z,1004.07
2018-12-18T11:47:13.289Z,1004.07
2018-12-18T11:48:18.934Z,1004.09
2018-12-18T11:49:25.608Z,1004.14
2018-12-18T11:50:31.230Z,1004.15
2018-12-18T11:51:37.871Z,1004.15
2018-12-18T11:52:44.027Z,1004.12
2018-12-18T11:53:50.179Z,1004.09
2018-12-18T11:54:56.323Z,1004.07
2018-12-18T11:56:02.481Z,1004.09
2018-12-18T11:57:08.636Z,1004.02
2018-12-18T11:58:14.787Z,1004.00
2018-12-18T11:59:20.442Z,1003.99
2018-12-18T12:00:27.079Z,1004.00
2018-12-18T12:01:33.257Z,1003.99
2018-12-18T12:02:42.851Z,1003.96
2018-12-18T12:03:45.580Z,1003.97
2018-12-18T12:04:51.213Z,1003.94
2018-12-18T12:05:57.350Z,1003.87
2018-12-18T12:07:03.514Z,1003.86
2018-12-18T12:08:11.156Z,1003.84
2018-12-18T12:09:16.318Z,1003.79
2018-12-18T12:10:21.991Z,1003.73
2018-12-18T12:11:28.645Z,1003.63
2018-12-18T12:12:34.808Z,1003.61
2018-12-18T12:13:40.962Z,1003.62
2018-12-18T12:14:46.629Z,1003.59
2018-12-18T12:15:53.290Z,1003.57
2018-12-18T12:16:59.582Z,1003.59
2018-12-18T12:18:05.580Z,1003.54
2018-12-18T12:19:11.809Z,1003.55
2018-12-18T12:20:17.501Z,1003.47
2018-12-18T12:21:24.183Z,1003.49
2018-12-18T12:22:30.348Z,1003.46
2018-12-18T12:23:36.022Z,1003.49
2018-12-18T12:24:42.704Z,1003.42
2018-12-18T12:25:48.373Z,1003.45
2018-12-18T12:26:55.040Z,1003.44
2018-12-18T12:28:01.219Z,1003.40
2018-12-18T12:29:07.394Z,1003.38
2018-12-18T12:30:13.593Z,1003.37
2018-12-18T12:31:19.258Z,1003.36
2018-12-18T12:32:25.427Z,1003.34
2018-12-18T12:33:31.592Z,1003.33
2018-12-18T12:34:38.299Z,1003.33
2018-12-18T12:35:44.449Z,1003.32
2018-12-18T12:36:50.122Z,1003.34
2018-12-18T12:37:56.790Z,1003.30
2018-12-18T12:39:02.965Z,1003.28
2018-12-18T12:40:09.154Z,1003.27
2018-12-18T12:41:15.308Z,1003.22
2018-12-18T12:42:20.991Z,1003.21
2018-12-18T12:43:27.656Z,1003.20
2018-12-18T12:44:33.830Z,1003.15
2018-12-18T12:45:40.014Z,1003.11
2018-12-18T12:46:45.701Z,1003.14
2018-12-18T12:47:51.883Z,1003.13
2018-12-18T12:48:58.543Z,1003.13
2018-12-18T12:50:04.245Z,1003.10
2018-12-18T12:51:10.923Z,1003.08
2018-12-18T12:52:17.090Z,1003.08
2018-12-18T12:53:23.288Z,1002.99
2018-12-18T12:54:28.965Z,1002.93
2018-12-18T12:55:35.175Z,1002.92
2018-12-18T12:56:41.354Z,1002.85
2018-12-18T12:57:47.541Z,1002.86
2018-12-18T12:58:54.238Z,1002.85
2018-12-18T12:59:59.920Z,1002.88
2018-12-18T13:01:06.593Z,1002.86
2018-12-18T13:02:12.804Z,1002.86
2018-12-18T13:03:18.496Z,1002.85
2018-12-18T13:04:25.178Z,1002.79
2018-12-18T13:05:31.376Z,1002.81
2018-12-18T13:06:37.061Z,1002.82
2018-12-18T13:07:43.754Z,1002.78
2018-12-18T13:08:49.590Z,1002.72
2018-12-18T13:09:55.647Z,1002.71
2018-12-18T13:11:01.830Z,1002.65
2018-12-18T13:12:08.012Z,1002.61
2018-12-18T13:13:14.721Z,1002.61
2018-12-18T13:14:20.404Z,1002.57
2018-12-18T13:15:27.108Z,1002.58
2018-12-18T13:16:33.299Z,1002.57
2018-12-18T13:17:39.576Z,1002.49
2018-12-18T13:18:45.696Z,1002.52